sensor_id;sensor_type;location;lat;lon;timestamp;P1;durP1;ratioP1;P2;durP2;ratioP2
1563;SDS011;775;51.958;7.976;2023-05-10T00:01:09;17.13;;;8.30;;
1563;SDS011;775;51.958;7.976;2023-05-10T00:03:36;15.73;;;7.40;;
1563;SDS011;775;51.958;7.976;2023-05-10T00:06:03;15.13;;;6.73;;
1563;SDS011;775;51.958;7.976;2023-05-10T00:08:30;15.60;;;6.10;;
1563;SDS011;775;51.958;7.976;2023-05-10T00:10:59;15.57;;;6.40;;
1563;SDS011;775;51.958;7.976;2023-05-10T00:13:26;15.17;;;6.40;;
1563;SDS011;775;51.958;7.976;2023-05-10T00:15:53;15.10;;;6.30;;
1563;SDS011;775;51.958;7.976;2023-05-10T00:18:20;16.73;;;6.50;;
1563;SDS011;775;51.958;7.976;2023-05-10T00:20:47;14.87;;;6.53;;
1563;SDS011;775;51.958;7.976;2023-05-10T00:23:14;18.77;;;6.30;;
1563;SDS011;775;51.958;7.976;2023-05-10T00:25:41;14.63;;;5.80;;
1563;SDS011;775;51.958;7.976;2023-05-10T00:28:10;14.57;;;6.00;;
1563;SDS011;775;51.958;7.976;2023-05-10T00:30:37;14.63;;;5.70;;
1563;SDS011;775;51.958;7.976;2023-05-10T00:33:04;13.17;;;4.57;;
1563;SDS011;775;51.958;7.976;2023-05-10T00:35:31;14.60;;;5.93;;
1563;SDS011;775;51.958;7.976;2023-05-10T00:37:58;13.50;;;5.50;;
1563;SDS011;775;51.958;7.976;2023-05-10T00:40:26;13.23;;;4.47;;
1563;SDS011;775;51.958;7.976;2023-05-10T00:42:53;13.20;;;4.70;;
1563;SDS011;775;51.958;7.976;2023-05-10T00:45:22;12.80;;;4.40;;
1563;SDS011;775;51.958;7.976;2023-05-10T00:47:49;13.60;;;5.20;;
1563;SDS011;775;51.958;7.976;2023-05-10T00:50:20;13.30;;;4.53;;
1563;SDS011;775;51.958;7.976;2023-05-10T00:52:47;12.97;;;4.50;;
1563;SDS011;775;51.958;7.976;2023-05-10T00:55:14;13.90;;;5.10;;
1563;SDS011;775;51.958;7.976;2023-05-10T00:57:41;13.43;;;4.50;;
1563;SDS011;775;51.958;7.976;2023-05-10T01:00:09;12.20;;;4.20;;
1563;SDS011;775;51.958;7.976;2023-05-10T01:02:38;13.40;;;4.90;;
1563;SDS011;775;51.958;7.976;2023-05-10T01:05:06;14.23;;;4.63;;
1563;SDS011;775;51.958;7.976;2023-05-10T01:07:33;13.67;;;4.73;;
1563;SDS011;775;51.958;7.976;2023-05-10T01:10:00;13.50;;;4.70;;
1563;SDS011;775;51.958;7.976;2023-05-10T01:12:27;13.13;;;4.40;;
1563;SDS011;775;51.958;7.976;2023-05-10T01:14:54;14.20;;;4.43;;
1563;SDS011;775;51.958;7.976;2023-05-10T01:17:22;12.30;;;3.83;;
1563;SDS011;775;51.958;7.976;2023-05-10T01:19:51;13.10;;;4.07;;
1563;SDS011;775;51.958;7.976;2023-05-10T01:22:30;12.43;;;4.00;;
1563;SDS011;775;51.958;7.976;2023-05-10T01:25:11;13.33;;;4.77;;
1563;SDS011;775;51.958;7.976;2023-05-10T01:28:04;12.60;;;3.60;;
1563;SDS011;775;51.958;7.976;2023-05-10T01:33:22;13.87;;;4.33;;
1563;SDS011;775;51.958;7.976;2023-05-10T01:35:51;13.57;;;3.80;;
1563;SDS011;775;51.958;7.976;2023-05-10T01:38:22;13.37;;;3.50;;
1563;SDS011;775;51.958;7.976;2023-05-10T01:40:56;12.87;;;3.63;;
1563;SDS011;775;51.958;7.976;2023-05-10T01:43:28;13.20;;;3.87;;
1563;SDS011;775;51.958;7.976;2023-05-10T01:45:59;13.13;;;4.33;;
1563;SDS011;775;51.958;7.976;2023-05-10T01:48:31;12.60;;;3.90;;
1563;SDS011;775;51.958;7.976;2023-05-10T01:50:59;12.07;;;3.57;;
1563;SDS011;775;51.958;7.976;2023-05-10T01:53:26;14.13;;;4.47;;
1563;SDS011;775;51.958;7.976;2023-05-10T01:55:54;13.43;;;4.20;;
1563;SDS011;775;51.958;7.976;2023-05-10T01:58:23;13.37;;;4.40;;
1563;SDS011;775;51.958;7.976;2023-05-10T02:00:51;12.87;;;4.10;;
1563;SDS011;775;51.958;7.976;2023-05-10T02:03:20;11.67;;;3.70;;
1563;SDS011;775;51.958;7.976;2023-05-10T02:05:49;13.20;;;4.30;;
1563;SDS011;775;51.958;7.976;2023-05-10T02:08:17;12.40;;;4.00;;
1563;SDS011;775;51.958;7.976;2023-05-10T02:10:44;13.50;;;4.60;;
1563;SDS011;775;51.958;7.976;2023-05-10T02:13:12;12.10;;;4.00;;
1563;SDS011;775;51.958;7.976;2023-05-10T02:15:39;12.10;;;3.90;;
1563;SDS011;775;51.958;7.976;2023-05-10T02:18:07;12.87;;;4.20;;
1563;SDS011;775;51.958;7.976;2023-05-10T02:20:35;13.13;;;4.43;;
1563;SDS011;775;51.958;7.976;2023-05-10T02:23:05;12.57;;;3.50;;
1563;SDS011;775;51.958;7.976;2023-05-10T02:25:33;12.07;;;3.07;;
1563;SDS011;775;51.958;7.976;2023-05-10T02:28:01;11.90;;;3.57;;
1563;SDS011;775;51.958;7.976;2023-05-10T02:30:29;12.07;;;3.40;;
1563;SDS011;775;51.958;7.976;2023-05-10T02:32:58;12.43;;;3.70;;
1563;SDS011;775;51.958;7.976;2023-05-10T02:35:25;13.00;;;3.27;;
1563;SDS011;775;51.958;7.976;2023-05-10T02:37:53;13.07;;;3.60;;
1563;SDS011;775;51.958;7.976;2023-05-10T02:40:22;11.73;;;3.27;;
1563;SDS011;775;51.958;7.976;2023-05-10T02:42:50;12.17;;;3.40;;
1563;SDS011;775;51.958;7.976;2023-05-10T02:45:19;11.40;;;2.63;;
1563;SDS011;775;51.958;7.976;2023-05-10T02:47:47;10.73;;;2.37;;
1563;SDS011;775;51.958;7.976;2023-05-10T02:50:14;10.73;;;2.00;;
1563;SDS011;775;51.958;7.976;2023-05-10T02:52:42;10.80;;;1.87;;
1563;SDS011;775;51.958;7.976;2023-05-10T02:55:13;10.10;;;1.30;;
1563;SDS011;775;51.958;7.976;2023-05-10T02:57:46;10.13;;;1.40;;
1563;SDS011;775;51.958;7.976;2023-05-10T03:00:15;10.43;;;1.53;;
1563;SDS011;775;51.958;7.976;2023-05-10T03:02:42;9.93;;;1.37;;
1563;SDS011;775;51.958;7.976;2023-05-10T03:05:09;10.30;;;1.53;;
1563;SDS011;775;51.958;7.976;2023-05-10T03:07:36;11.13;;;1.70;;
1563;SDS011;775;51.958;7.976;2023-05-10T03:10:03;10.70;;;1.97;;
1563;SDS011;775;51.958;7.976;2023-05-10T03:12:33;10.17;;;1.60;;
1563;SDS011;775;51.958;7.976;2023-05-10T03:15:07;10.43;;;1.60;;
1563;SDS011;775;51.958;7.976;2023-05-10T03:17:41;10.80;;;1.87;;
1563;SDS011;775;51.958;7.976;2023-05-10T03:20:11;10.50;;;1.70;;
1563;SDS011;775;51.958;7.976;2023-05-10T03:22:41;11.40;;;2.30;;
1563;SDS011;775;51.958;7.976;2023-05-10T03:25:11;12.20;;;2.63;;
1563;SDS011;775;51.958;7.976;2023-05-10T03:27:39;11.00;;;2.30;;
1563;SDS011;775;51.958;7.976;2023-05-10T03:30:10;11.03;;;2.40;;
1563;SDS011;775;51.958;7.976;2023-05-10T03:32:37;11.27;;;2.60;;
1563;SDS011;775;51.958;7.976;2023-05-10T03:35:06;10.53;;;1.90;;
1563;SDS011;775;51.958;7.976;2023-05-10T03:37:33;11.93;;;2.30;;
1563;SDS011;775;51.958;7.976;2023-05-10T03:40:00;11.83;;;2.83;;
1563;SDS011;775;51.958;7.976;2023-05-10T03:42:27;13.30;;;2.70;;
1563;SDS011;775;51.958;7.976;2023-05-10T03:44:55;11.97;;;2.70;;
1563;SDS011;775;51.958;7.976;2023-05-10T03:47:23;11.70;;;2.50;;
1563;SDS011;775;51.958;7.976;2023-05-10T03:49:50;11.50;;;2.90;;
1563;SDS011;775;51.958;7.976;2023-05-10T03:52:18;11.17;;;2.30;;
1563;SDS011;775;51.958;7.976;2023-05-10T03:54:45;11.20;;;2.80;;
1563;SDS011;775;51.958;7.976;2023-05-10T03:57:12;11.77;;;2.87;;
1563;SDS011;775;51.958;7.976;2023-05-10T03:59:39;11.80;;;2.90;;
1563;SDS011;775;51.958;7.976;2023-05-10T04:02:06;11.67;;;3.00;;
1563;SDS011;775;51.958;7.976;2023-05-10T04:04:34;11.03;;;2.60;;
1563;SDS011;775;51.958;7.976;2023-05-10T04:07:01;12.03;;;2.47;;
1563;SDS011;775;51.958;7.976;2023-05-10T04:09:29;11.90;;;2.27;;
1563;SDS011;775;51.958;7.976;2023-05-10T04:11:56;13.40;;;3.13;;
1563;SDS011;775;51.958;7.976;2023-05-10T04:14:23;11.60;;;2.73;;
1563;SDS011;775;51.958;7.976;2023-05-10T04:16:50;11.50;;;3.17;;
1563;SDS011;775;51.958;7.976;2023-05-10T04:19:17;11.77;;;2.80;;
1563;SDS011;775;51.958;7.976;2023-05-10T04:21:46;11.83;;;2.93;;
1563;SDS011;775;51.958;7.976;2023-05-10T04:24:13;12.40;;;2.90;;
1563;SDS011;775;51.958;7.976;2023-05-10T04:26:40;12.13;;;3.00;;
1563;SDS011;775;51.958;7.976;2023-05-10T04:29:07;11.80;;;2.33;;
1563;SDS011;775;51.958;7.976;2023-05-10T04:31:34;13.00;;;3.20;;
1563;SDS011;775;51.958;7.976;2023-05-10T04:34:02;13.30;;;3.17;;
1563;SDS011;775;51.958;7.976;2023-05-10T04:36:29;12.50;;;3.20;;
1563;SDS011;775;51.958;7.976;2023-05-10T04:38:58;13.90;;;3.50;;
1563;SDS011;775;51.958;7.976;2023-05-10T04:41:25;12.80;;;3.33;;
1563;SDS011;775;51.958;7.976;2023-05-10T04:43:52;12.33;;;3.00;;
1563;SDS011;775;51.958;7.976;2023-05-10T04:46:19;11.83;;;2.97;;
1563;SDS011;775;51.958;7.976;2023-05-10T04:48:47;11.63;;;3.00;;
1563;SDS011;775;51.958;7.976;2023-05-10T04:51:14;12.43;;;2.80;;
1563;SDS011;775;51.958;7.976;2023-05-10T04:53:41;11.83;;;2.70;;
1563;SDS011;775;51.958;7.976;2023-05-10T04:56:09;11.90;;;2.83;;
1563;SDS011;775;51.958;7.976;2023-05-10T04:58:36;12.20;;;2.83;;
1563;SDS011;775;51.958;7.976;2023-05-10T05:01:06;12.30;;;3.20;;
1563;SDS011;775;51.958;7.976;2023-05-10T05:03:34;13.20;;;3.27;;
1563;SDS011;775;51.958;7.976;2023-05-10T05:06:01;12.10;;;2.80;;
1563;SDS011;775;51.958;7.976;2023-05-10T05:08:28;11.40;;;2.67;;
1563;SDS011;775;51.958;7.976;2023-05-10T05:10:56;11.80;;;2.93;;
1563;SDS011;775;51.958;7.976;2023-05-10T05:13:25;11.73;;;2.70;;
1563;SDS011;775;51.958;7.976;2023-05-10T05:15:52;14.80;;;3.90;;
1563;SDS011;775;51.958;7.976;2023-05-10T05:18:19;12.23;;;3.60;;
1563;SDS011;775;51.958;7.976;2023-05-10T05:20:46;12.13;;;3.00;;
1563;SDS011;775;51.958;7.976;2023-05-10T05:23:14;12.23;;;3.37;;
1563;SDS011;775;51.958;7.976;2023-05-10T05:25:41;12.63;;;3.27;;
1563;SDS011;775;51.958;7.976;2023-05-10T05:28:08;11.93;;;2.90;;
1563;SDS011;775;51.958;7.976;2023-05-10T05:30:36;12.17;;;3.00;;
1563;SDS011;775;51.958;7.976;2023-05-10T05:33:03;12.23;;;3.43;;
1563;SDS011;775;51.958;7.976;2023-05-10T05:35:31;12.20;;;3.17;;
1563;SDS011;775;51.958;7.976;2023-05-10T05:37:58;12.70;;;3.50;;
1563;SDS011;775;51.958;7.976;2023-05-10T05:40:25;11.77;;;3.63;;
1563;SDS011;775;51.958;7.976;2023-05-10T05:42:52;12.13;;;3.30;;
1563;SDS011;775;51.958;7.976;2023-05-10T05:45:19;11.93;;;3.30;;
1563;SDS011;775;51.958;7.976;2023-05-10T05:47:48;12.30;;;3.60;;
1563;SDS011;775;51.958;7.976;2023-05-10T05:50:15;11.57;;;2.97;;
1563;SDS011;775;51.958;7.976;2023-05-10T05:52:42;12.67;;;3.77;;
1563;SDS011;775;51.958;7.976;2023-05-10T05:55:09;13.23;;;3.40;;
1563;SDS011;775;51.958;7.976;2023-05-10T05:57:36;14.33;;;4.07;;
1563;SDS011;775;51.958;7.976;2023-05-10T06:00:04;12.57;;;4.03;;
1563;SDS011;775;51.958;7.976;2023-05-10T06:02:31;13.77;;;4.13;;
1563;SDS011;775;51.958;7.976;2023-05-10T06:05:00;15.40;;;3.50;;
1563;SDS011;775;51.958;7.976;2023-05-10T06:07:27;12.50;;;3.60;;
1563;SDS011;775;51.958;7.976;2023-05-10T06:09:54;14.20;;;4.30;;
1563;SDS011;775;51.958;7.976;2023-05-10T06:12:21;13.27;;;4.03;;
1563;SDS011;775;51.958;7.976;2023-05-10T06:14:48;15.73;;;4.83;;
1563;SDS011;775;51.958;7.976;2023-05-10T06:17:16;18.93;;;5.10;;
1563;SDS011;775;51.958;7.976;2023-05-10T06:19:43;15.30;;;5.37;;
1563;SDS011;775;51.958;7.976;2023-05-10T06:22:11;14.13;;;5.27;;
1563;SDS011;775;51.958;7.976;2023-05-10T06:24:38;16.70;;;6.23;;
1563;SDS011;775;51.958;7.976;2023-05-10T06:27:05;17.40;;;6.00;;
1563;SDS011;775;51.958;7.976;2023-05-10T06:29:33;14.63;;;5.50;;
1563;SDS011;775;51.958;7.976;2023-05-10T06:32:00;20.30;;;6.50;;
1563;SDS011;775;51.958;7.976;2023-05-10T06:34:27;17.20;;;6.57;;
1563;SDS011;775;51.958;7.976;2023-05-10T06:36:54;17.33;;;7.17;;
1563;SDS011;775;51.958;7.976;2023-05-10T06:39:22;18.23;;;7.43;;
1563;SDS011;775;51.958;7.976;2023-05-10T06:41:50;17.80;;;7.63;;
1563;SDS011;775;51.958;7.976;2023-05-10T06:44:17;18.53;;;7.53;;
1563;SDS011;775;51.958;7.976;2023-05-10T06:46:44;18.77;;;7.33;;
1563;SDS011;775;51.958;7.976;2023-05-10T06:49:11;21.87;;;8.83;;
1563;SDS011;775;51.958;7.976;2023-05-10T06:51:38;20.00;;;8.23;;
1563;SDS011;775;51.958;7.976;2023-05-10T06:54:05;21.33;;;8.77;;
1563;SDS011;775;51.958;7.976;2023-05-10T06:56:34;19.23;;;8.53;;
1563;SDS011;775;51.958;7.976;2023-05-10T06:59:01;20.77;;;8.60;;
1563;SDS011;775;51.958;7.976;2023-05-10T07:01:28;23.50;;;8.77;;
1563;SDS011;775;51.958;7.976;2023-05-10T07:03:55;21.67;;;9.47;;
1563;SDS011;775;51.958;7.976;2023-05-10T07:06:22;22.03;;;8.70;;
1563;SDS011;775;51.958;7.976;2023-05-10T07:08:49;23.60;;;9.93;;
1563;SDS011;775;51.958;7.976;2023-05-10T07:11:16;21.60;;;9.00;;
1563;SDS011;775;51.958;7.976;2023-05-10T07:13:45;22.83;;;9.70;;
1563;SDS011;775;51.958;7.976;2023-05-10T07:16:12;23.77;;;9.70;;
1563;SDS011;775;51.958;7.976;2023-05-10T07:18:39;28.87;;;10.90;;
1563;SDS011;775;51.958;7.976;2023-05-10T07:21:06;23.00;;;10.43;;
1563;SDS011;775;51.958;7.976;2023-05-10T07:23:33;27.10;;;9.23;;
1563;SDS011;775;51.958;7.976;2023-05-10T07:26:00;22.83;;;10.30;;
1563;SDS011;775;51.958;7.976;2023-05-10T07:28:27;24.43;;;9.73;;
1563;SDS011;775;51.958;7.976;2023-05-10T07:30:56;24.67;;;10.67;;
1563;SDS011;775;51.958;7.976;2023-05-10T07:33:23;27.13;;;9.30;;
1563;SDS011;775;51.958;7.976;2023-05-10T07:35:50;23.10;;;9.13;;
1563;SDS011;775;51.958;7.976;2023-05-10T07:38:17;21.97;;;9.40;;
1563;SDS011;775;51.958;7.976;2023-05-10T07:40:44;23.20;;;10.90;;
1563;SDS011;775;51.958;7.976;2023-05-10T07:43:11;23.23;;;10.77;;
1563;SDS011;775;51.958;7.976;2023-05-10T07:45:38;25.07;;;11.47;;
1563;SDS011;775;51.958;7.976;2023-05-10T07:48:07;22.40;;;10.13;;
1563;SDS011;775;51.958;7.976;2023-05-10T07:50:34;22.30;;;10.13;;
1563;SDS011;775;51.958;7.976;2023-05-10T07:53:01;25.10;;;11.50;;
1563;SDS011;775;51.958;7.976;2023-05-10T07:55:28;24.83;;;11.20;;
1563;SDS011;775;51.958;7.976;2023-05-10T07:57:55;30.30;;;12.40;;
1563;SDS011;775;51.958;7.976;2023-05-10T08:00:22;26.07;;;13.10;;
1563;SDS011;775;51.958;7.976;2023-05-10T08:02:50;30.00;;;13.40;;
1563;SDS011;775;51.958;7.976;2023-05-10T08:05:19;26.87;;;13.10;;
1563;SDS011;775;51.958;7.976;2023-05-10T08:07:46;26.63;;;13.20;;
1563;SDS011;775;51.958;7.976;2023-05-10T08:10:13;28.50;;;14.80;;
1563;SDS011;775;51.958;7.976;2023-05-10T08:12:40;31.27;;;14.33;;
1563;SDS011;775;51.958;7.976;2023-05-10T08:15:07;30.63;;;16.13;;
1563;SDS011;775;51.958;7.976;2023-05-10T08:17:35;32.50;;;16.63;;
1563;SDS011;775;51.958;7.976;2023-05-10T08:20:02;34.83;;;16.70;;
1563;SDS011;775;51.958;7.976;2023-05-10T08:22:30;36.07;;;17.43;;
1563;SDS011;775;51.958;7.976;2023-05-10T08:24:57;34.13;;;16.63;;
1563;SDS011;775;51.958;7.976;2023-05-10T08:27:25;35.90;;;17.47;;
1563;SDS011;775;51.958;7.976;2023-05-10T08:29:52;34.03;;;16.30;;
1563;SDS011;775;51.958;7.976;2023-05-10T08:32:19;33.87;;;16.10;;
1563;SDS011;775;51.958;7.976;2023-05-10T08:34:46;31.67;;;15.70;;
1563;SDS011;775;51.958;7.976;2023-05-10T08:37:13;34.10;;;15.83;;
1563;SDS011;775;51.958;7.976;2023-05-10T08:39:41;31.67;;;15.87;;
1563;SDS011;775;51.958;7.976;2023-05-10T08:42:08;35.43;;;15.50;;
1563;SDS011;775;51.958;7.976;2023-05-10T08:44:36;30.87;;;13.93;;
1563;SDS011;775;51.958;7.976;2023-05-10T08:47:04;27.40;;;13.77;;
1563;SDS011;775;51.958;7.976;2023-05-10T08:49:32;28.37;;;13.73;;
1563;SDS011;775;51.958;7.976;2023-05-10T08:52:00;32.03;;;15.70;;
1563;SDS011;775;51.958;7.976;2023-05-10T08:54:29;29.23;;;14.47;;
1563;SDS011;775;51.958;7.976;2023-05-10T08:56:58;28.87;;;13.70;;
1563;SDS011;775;51.958;7.976;2023-05-10T08:59:25;29.17;;;14.67;;
1563;SDS011;775;51.958;7.976;2023-05-10T09:01:52;29.20;;;13.20;;
1563;SDS011;775;51.958;7.976;2023-05-10T09:04:20;30.83;;;13.17;;
1563;SDS011;775;51.958;7.976;2023-05-10T09:06:47;30.93;;;13.67;;
1563;SDS011;775;51.958;7.976;2023-05-10T09:09:15;30.00;;;13.97;;
1563;SDS011;775;51.958;7.976;2023-05-10T09:11:42;30.33;;;14.90;;
1563;SDS011;775;51.958;7.976;2023-05-10T09:14:11;28.47;;;12.80;;
1563;SDS011;775;51.958;7.976;2023-05-10T09:16:39;27.10;;;13.20;;
1563;SDS011;775;51.958;7.976;2023-05-10T09:19:07;27.43;;;13.70;;
1563;SDS011;775;51.958;7.976;2023-05-10T09:21:35;26.80;;;12.43;;
1563;SDS011;775;51.958;7.976;2023-05-10T09:24:03;25.33;;;11.90;;
1563;SDS011;775;51.958;7.976;2023-05-10T09:26:30;27.47;;;13.60;;
1563;SDS011;775;51.958;7.976;2023-05-10T09:28:58;25.13;;;12.57;;
1563;SDS011;775;51.958;7.976;2023-05-10T09:31:42;27.40;;;12.60;;
1563;SDS011;775;51.958;7.976;2023-05-10T09:34:10;25.47;;;12.97;;
1563;SDS011;775;51.958;7.976;2023-05-10T09:36:48;25.73;;;11.37;;
1563;SDS011;775;51.958;7.976;2023-05-10T09:39:16;26.90;;;12.10;;
1563;SDS011;775;51.958;7.976;2023-05-10T09:41:43;26.80;;;12.30;;
1563;SDS011;775;51.958;7.976;2023-05-10T09:44:11;28.67;;;13.03;;
1563;SDS011;775;51.958;7.976;2023-05-10T09:46:39;28.90;;;12.30;;
1563;SDS011;775;51.958;7.976;2023-05-10T09:49:06;26.27;;;12.57;;
1563;SDS011;775;51.958;7.976;2023-05-10T09:51:34;30.13;;;13.10;;
1563;SDS011;775;51.958;7.976;2023-05-10T09:54:08;35.20;;;12.83;;
1563;SDS011;775;51.958;7.976;2023-05-10T09:56:36;30.03;;;13.37;;
1563;SDS011;775;51.958;7.976;2023-05-10T09:59:05;27.70;;;12.40;;
1563;SDS011;775;51.958;7.976;2023-05-10T10:01:33;26.87;;;12.90;;
1563;SDS011;775;51.958;7.976;2023-05-10T10:04:02;25.40;;;12.40;;
1563;SDS011;775;51.958;7.976;2023-05-10T10:06:34;27.70;;;13.37;;
1563;SDS011;775;51.958;7.976;2023-05-10T10:09:01;26.40;;;12.80;;
1563;SDS011;775;51.958;7.976;2023-05-10T10:11:28;28.47;;;13.10;;
1563;SDS011;775;51.958;7.976;2023-05-10T10:13:56;26.47;;;13.10;;
1563;SDS011;775;51.958;7.976;2023-05-10T10:16:23;29.87;;;12.70;;
1563;SDS011;775;51.958;7.976;2023-05-10T10:18:51;26.30;;;13.27;;
1563;SDS011;775;51.958;7.976;2023-05-10T10:21:19;26.07;;;11.13;;
1563;SDS011;775;51.958;7.976;2023-05-10T10:23:46;24.73;;;10.63;;
1563;SDS011;775;51.958;7.976;2023-05-10T10:26:13;24.97;;;11.33;;
1563;SDS011;775;51.958;7.976;2023-05-10T10:28:46;24.53;;;10.80;;
1563;SDS011;775;51.958;7.976;2023-05-10T10:31:17;25.77;;;12.03;;
1563;SDS011;775;51.958;7.976;2023-05-10T10:33:51;24.10;;;10.60;;
1563;SDS011;775;51.958;7.976;2023-05-10T10:36:22;25.13;;;11.67;;
1563;SDS011;775;51.958;7.976;2023-05-10T10:38:55;26.37;;;12.00;;
1563;SDS011;775;51.958;7.976;2023-05-10T10:41:28;29.83;;;12.77;;
1563;SDS011;775;51.958;7.976;2023-05-10T10:49:24;24.87;;;10.43;;
1563;SDS011;775;51.958;7.976;2023-05-10T10:54:38;32.40;;;12.63;;
1563;SDS011;775;51.958;7.976;2023-05-10T10:57:13;31.07;;;14.23;;
1563;SDS011;775;51.958;7.976;2023-05-10T10:59:43;27.10;;;11.50;;
1563;SDS011;775;51.958;7.976;2023-05-10T11:02:10;23.90;;;11.27;;
1563;SDS011;775;51.958;7.976;2023-05-10T11:04:57;28.67;;;11.83;;
1563;SDS011;775;51.958;7.976;2023-05-10T11:07:24;27.80;;;13.07;;
1563;SDS011;775;51.958;7.976;2023-05-10T11:09:53;29.27;;;13.73;;
1563;SDS011;775;51.958;7.976;2023-05-10T11:12:21;30.20;;;12.57;;
1563;SDS011;775;51.958;7.976;2023-05-10T11:14:49;35.47;;;13.67;;
1563;SDS011;775;51.958;7.976;2023-05-10T11:17:23;31.17;;;14.30;;
1563;SDS011;775;51.958;7.976;2023-05-10T11:22:50;25.77;;;12.67;;
1563;SDS011;775;51.958;7.976;2023-05-10T11:25:19;27.03;;;13.23;;
1563;SDS011;775;51.958;7.976;2023-05-10T11:27:47;29.97;;;12.90;;
1563;SDS011;775;51.958;7.976;2023-05-10T11:30:14;27.53;;;12.70;;
1563;SDS011;775;51.958;7.976;2023-05-10T11:32:41;28.77;;;13.83;;
1563;SDS011;775;51.958;7.976;2023-05-10T11:35:09;26.47;;;12.97;;
1563;SDS011;775;51.958;7.976;2023-05-10T11:37:37;28.60;;;13.07;;
1563;SDS011;775;51.958;7.976;2023-05-10T11:40:08;29.27;;;13.60;;
1563;SDS011;775;51.958;7.976;2023-05-10T11:42:37;30.17;;;12.90;;
1563;SDS011;775;51.958;7.976;2023-05-10T11:45:05;32.40;;;12.70;;
1563;SDS011;775;51.958;7.976;2023-05-10T11:47:32;27.80;;;13.53;;
1563;SDS011;775;51.958;7.976;2023-05-10T11:50:00;28.70;;;12.23;;
1563;SDS011;775;51.958;7.976;2023-05-10T11:52:27;25.93;;;11.80;;
1563;SDS011;775;51.958;7.976;2023-05-10T11:54:55;27.70;;;11.30;;
1563;SDS011;775;51.958;7.976;2023-05-10T11:57:25;23.07;;;11.13;;
1563;SDS011;775;51.958;7.976;2023-05-10T11:59:54;25.17;;;11.27;;
1563;SDS011;775;51.958;7.976;2023-05-10T12:02:23;24.33;;;12.03;;
1563;SDS011;775;51.958;7.976;2023-05-10T12:04:50;27.03;;;12.33;;
1563;SDS011;775;51.958;7.976;2023-05-10T12:07:17;26.40;;;11.80;;
1563;SDS011;775;51.958;7.976;2023-05-10T12:09:48;28.10;;;11.93;;
1563;SDS011;775;51.958;7.976;2023-05-10T12:12:34;22.50;;;11.13;;
1563;SDS011;775;51.958;7.976;2023-05-10T12:15:03;25.50;;;10.83;;
1563;SDS011;775;51.958;7.976;2023-05-10T12:17:31;26.50;;;12.30;;
1563;SDS011;775;51.958;7.976;2023-05-10T12:19:58;24.53;;;11.37;;
1563;SDS011;775;51.958;7.976;2023-05-10T12:22:26;26.30;;;12.03;;
1563;SDS011;775;51.958;7.976;2023-05-10T12:24:53;24.57;;;11.53;;
1563;SDS011;775;51.958;7.976;2023-05-10T12:27:21;24.37;;;11.00;;
1563;SDS011;775;51.958;7.976;2023-05-10T12:29:48;25.33;;;11.50;;
1563;SDS011;775;51.958;7.976;2023-05-10T12:32:16;25.13;;;10.33;;
1563;SDS011;775;51.958;7.976;2023-05-10T12:34:43;23.50;;;10.77;;
1563;SDS011;775;51.958;7.976;2023-05-10T12:37:13;26.10;;;10.90;;
1563;SDS011;775;51.958;7.976;2023-05-10T12:39:40;23.13;;;11.10;;
1563;SDS011;775;51.958;7.976;2023-05-10T12:42:08;26.60;;;10.70;;
1563;SDS011;775;51.958;7.976;2023-05-10T12:44:35;22.93;;;10.90;;
1563;SDS011;775;51.958;7.976;2023-05-10T12:47:02;24.40;;;12.00;;
1563;SDS011;775;51.958;7.976;2023-05-10T12:49:31;22.37;;;10.10;;
1563;SDS011;775;51.958;7.976;2023-05-10T12:51:58;20.13;;;9.57;;
1563;SDS011;775;51.958;7.976;2023-05-10T12:54:25;23.70;;;11.20;;
1563;SDS011;775;51.958;7.976;2023-05-10T12:56:53;21.77;;;10.10;;
1563;SDS011;775;51.958;7.976;2023-05-10T12:59:20;27.00;;;11.00;;
1563;SDS011;775;51.958;7.976;2023-05-10T13:01:47;22.57;;;10.70;;
1563;SDS011;775;51.958;7.976;2023-05-10T13:04:14;24.63;;;12.00;;
1563;SDS011;775;51.958;7.976;2023-05-10T13:06:43;25.80;;;11.40;;
1563;SDS011;775;51.958;7.976;2023-05-10T13:09:10;24.53;;;11.40;;
1563;SDS011;775;51.958;7.976;2023-05-10T13:11:37;25.70;;;11.60;;
1563;SDS011;775;51.958;7.976;2023-05-10T13:14:04;23.47;;;11.60;;
1563;SDS011;775;51.958;7.976;2023-05-10T13:16:31;24.63;;;11.40;;
1563;SDS011;775;51.958;7.976;2023-05-10T13:18:59;24.83;;;12.00;;
1563;SDS011;775;51.958;7.976;2023-05-10T13:21:26;28.30;;;12.60;;
1563;SDS011;775;51.958;7.976;2023-05-10T13:23:54;27.07;;;12.60;;
1563;SDS011;775;51.958;7.976;2023-05-10T13:26:21;24.37;;;12.13;;
1563;SDS011;775;51.958;7.976;2023-05-10T13:28:48;26.53;;;13.10;;
1563;SDS011;775;51.958;7.976;2023-05-10T13:31:16;28.07;;;12.23;;
1563;SDS011;775;51.958;7.976;2023-05-10T13:33:43;29.10;;;12.33;;
1563;SDS011;775;51.958;7.976;2023-05-10T13:36:10;26.10;;;13.10;;
1563;SDS011;775;51.958;7.976;2023-05-10T13:38:37;24.90;;;12.43;;
1563;SDS011;775;51.958;7.976;2023-05-10T13:41:06;24.10;;;12.10;;
1563;SDS011;775;51.958;7.976;2023-05-10T13:43:33;27.93;;;12.77;;
1563;SDS011;775;51.958;7.976;2023-05-10T13:46:01;26.73;;;11.97;;
1563;SDS011;775;51.958;7.976;2023-05-10T13:48:28;27.73;;;12.50;;
1563;SDS011;775;51.958;7.976;2023-05-10T13:50:55;25.23;;;11.93;;
1563;SDS011;775;51.958;7.976;2023-05-10T13:53:22;23.80;;;12.30;;
1563;SDS011;775;51.958;7.976;2023-05-10T13:55:50;26.70;;;12.60;;
1563;SDS011;775;51.958;7.976;2023-05-10T13:58:18;26.50;;;12.30;;
1563;SDS011;775;51.958;7.976;2023-05-10T14:00:45;27.20;;;13.00;;
1563;SDS011;775;51.958;7.976;2023-05-10T14:03:12;29.60;;;13.60;;
1563;SDS011;775;51.958;7.976;2023-05-10T14:05:40;26.93;;;11.97;;
1563;SDS011;775;51.958;7.976;2023-05-10T14:08:07;27.53;;;11.57;;
1563;SDS011;775;51.958;7.976;2023-05-10T14:10:35;22.00;;;11.10;;
1563;SDS011;775;51.958;7.976;2023-05-10T14:13:03;23.20;;;10.63;;
1563;SDS011;775;51.958;7.976;2023-05-10T14:15:31;22.97;;;11.10;;
1563;SDS011;775;51.958;7.976;2023-05-10T14:17:58;23.93;;;9.80;;
1563;SDS011;775;51.958;7.976;2023-05-10T14:20:25;24.33;;;10.20;;
1563;SDS011;775;51.958;7.976;2023-05-10T14:22:52;22.50;;;9.37;;
1563;SDS011;775;51.958;7.976;2023-05-10T14:25:19;22.30;;;9.67;;
1563;SDS011;775;51.958;7.976;2023-05-10T14:27:46;22.77;;;8.50;;
1563;SDS011;775;51.958;7.976;2023-05-10T14:30:14;18.50;;;7.60;;
1563;SDS011;775;51.958;7.976;2023-05-10T14:32:42;20.80;;;9.53;;
1563;SDS011;775;51.958;7.976;2023-05-10T14:35:09;23.00;;;9.30;;
1563;SDS011;775;51.958;7.976;2023-05-10T14:37:37;23.93;;;9.87;;
1563;SDS011;775;51.958;7.976;2023-05-10T14:40:05;22.27;;;10.37;;
1563;SDS011;775;51.958;7.976;2023-05-10T14:42:34;23.03;;;9.17;;
1563;SDS011;775;51.958;7.976;2023-05-10T14:45:01;22.73;;;10.77;;
1563;SDS011;775;51.958;7.976;2023-05-10T14:47:28;23.33;;;9.97;;
1563;SDS011;775;51.958;7.976;2023-05-10T14:49:57;23.30;;;9.50;;
1563;SDS011;775;51.958;7.976;2023-05-10T14:52:24;22.50;;;10.33;;
1563;SDS011;775;51.958;7.976;2023-05-10T14:54:51;22.97;;;9.17;;
1563;SDS011;775;51.958;7.976;2023-05-10T14:57:18;20.50;;;8.90;;
1563;SDS011;775;51.958;7.976;2023-05-10T14:59:45;26.27;;;8.70;;
1563;SDS011;775;51.958;7.976;2023-05-10T15:02:13;20.70;;;8.70;;
1563;SDS011;775;51.958;7.976;2023-05-10T15:04:40;23.00;;;9.40;;
1563;SDS011;775;51.958;7.976;2023-05-10T15:07:08;23.33;;;9.83;;
1563;SDS011;775;51.958;7.976;2023-05-10T15:09:39;21.97;;;9.60;;
1563;SDS011;775;51.958;7.976;2023-05-10T15:12:06;21.37;;;9.60;;
1563;SDS011;775;51.958;7.976;2023-05-10T15:14:33;21.13;;;8.97;;
1563;SDS011;775;51.958;7.976;2023-05-10T15:17:01;23.93;;;9.10;;
1563;SDS011;775;51.958;7.976;2023-05-10T15:19:28;21.57;;;8.90;;
1563;SDS011;775;51.958;7.976;2023-05-10T15:21:55;22.60;;;9.47;;
1563;SDS011;775;51.958;7.976;2023-05-10T15:24:23;26.47;;;10.40;;
1563;SDS011;775;51.958;7.976;2023-05-10T15:26:51;24.80;;;9.87;;
1563;SDS011;775;51.958;7.976;2023-05-10T15:29:18;24.33;;;10.57;;